Terminal Aerodrome Forecast
Issued by NWS

Home | Current Version | Previous Version | Text Only | Print | Product List | Glossary On
Versions: 1 2 3 4 5 6 7 8 9 10 11 12 13 14 15
173
FTUS46 KSGX 092321
TAFSNA
TAF
KSNA 092321Z 1000/1024 23006KT P6SM FEW020 SCT030 BKN200
     FM100100 VRB04KT P6SM BKN015 BKN200
     FM102030 22009KT P6SM SCT020=

USA.gov is the U.S. government's official web portal to all federal, state and local government web resources and services.